Terminal Aerodrome Forecast
Issued by NWS

Current Version | Previous Version | Text Only | Print | Product List | Glossary On
Versions: 1 2 3 4 5 6 7 8 9 10 11 12 13
000
FTUS44 KCRP 290500
TAFALI
TAF
KALI 290524Z 2906/3006 10008KT P6SM VCSH SCT018 SCT050
     FM291100 12008KT P6SM VCSH SCT015 BKN040
     FM291400 12012KT P6SM VCTS SCT025CB BKN050
      TEMPO 2914/2918 4SM TSRA BR BKN015CB OVC040
     FM291800 13014KT P6SM VCTS SCT035CB BKN050
      TEMPO 2918/2922 5SM -TSRA BKN030CB
     FM300200 13008KT P6SM BKN050=

USA.gov is the U.S. government's official web portal to all federal, state and local government web resources and services.